< < Back
Terminal Aerodrome Forecast


Current Version              Previous Versions:   1  2  3  4  5  6  7  8  9  

Terminal Aerodrome Forecast

109
FTUS44 KBMX 190234 AAB
TAFTCL
TAF AMD
KTCL 190234Z 1903/1924 12005KT P6SM -RA SCT020 BKN035
      TEMPO 1904/1906 BKN020
     FM190600 16008KT 5SM SHRA VCTS OVC007CB
     FM191200 17008KT P6SM OVC007
     FM191500 22009KT P6SM OVC015
     FM192100 23009KT P6SM SCT050 OVC250=

Latest METAR

539
SAUS70 KWBC 190900 RRE
MTRTCL
METAR KTCL 190853Z AUTO 19009KT 5SM -RA BR BKN010 OVC014 21/19 A2975 RMK
AO2 RAE19B38 CIG 006V011 SLP072 P0008 60013 T02060194
58012


USA.gov is the U.S. government's official web portal to all federal, state and local government web resources and services.